Stations météo

Publicité
Alcaniz, Espagne (8164): Température de l'air & dewpoint: 20.01.2020 01:00:00 - 26.01.2020 01:00:00 (CET)Alcaniz, Espagne (8164): Vitesse du vent & gusts: 20.01.2020 01:00:00 - 26.01.2020 01:00:00 (CET)Alcaniz, Espagne (8164): Direction du vent: 20.01.2020 01:00:00 - 26.01.2020 01:00:00 (CET)Alcaniz, Espagne (8164): Quantités de précipitations: 20.01.2020 01:00:00 - 26.01.2020 01:00:00 (CET)
Date & Time tt [°C] td [°C] ff [km/h] ff [knt] fx [km/h] fx [knt] dd rr [mm]
26.01.2020 01:00:00 6,4 5,6 0 0 0 0 N -
26.01.2020 00:00:00 6,6 5,8 0 0 5 3 NE 0,1
25.01.2020 23:00:00 6,8 5,9 0 0 7 4 N 0,1
25.01.2020 22:00:00 7,1 6,2 0 0 5 3 SW 0,0
25.01.2020 21:00:00 7,3 6,1 0 0 5 3 N 0,0
25.01.2020 20:00:00 8,0 6,4 4 2 8 4 S 0,0
25.01.2020 19:00:00 8,9 7,3 0 0 8 4 N -
25.01.2020 18:00:00 9,9 8,0 0 0 6 4 NNW 0,0
25.01.2020 17:00:00 10,5 7,7 3 2 9 5 N 0,0
25.01.2020 16:00:00 11,3 7,3 0 0 10 5 NNE 0,0
25.01.2020 15:00:00 11,3 6,7 8 4 13 7 ENE 0,0
25.01.2020 14:00:00 11,2 5,3 2 1 9 5 E 0,0
25.01.2020 13:00:00 10,1 4,8 1 1 10 5 ESE -
25.01.2020 12:00:00 8,9 5,6 0 0 5 3 E 0,0
25.01.2020 11:00:00 6,1 4,5 0 0 4 2 N 0,0
25.01.2020 10:00:00 4,8 3,8 0 0 4 2 N 0,0
25.01.2020 09:00:00 3,6 2,9 4 2 8 4 WSW 0,0
25.01.2020 08:00:00 3,4 2,5 0 0 6 4 N 0,0
25.01.2020 07:00:00 3,7 2,7 0 0 10 5 N -
25.01.2020 06:00:00 4,0 3,0 0 0 0 0 N 0,0
25.01.2020 05:00:00 4,2 2,9 0 0 4 2 N 0,0
25.01.2020 04:00:00 3,9 2,5 0 0 7 4 ENE 0,0
25.01.2020 03:00:00 4,1 2,7 1 1 4 2 NW 0,0
25.01.2020 02:00:00 4,0 2,5 0 0 2 1 N 0,0
25.01.2020 01:00:00 3,8 2,1 0 0 7 4 SE -
25.01.2020 00:00:00 4,0 2,3 0 0 6 4 WNW 0,0
24.01.2020 23:00:00 4,7 2,1 1 0 10 5 SSW 0,0
24.01.2020 22:00:00 5,6 2,9 4 2 8 4 SSW 0,0
24.01.2020 21:00:00 6,0 3,6 1 1 6 3 S 0,0
24.01.2020 20:00:00 6,2 3,9 0 0 6 4 N 0,0
24.01.2020 19:00:00 6,8 5,8 0 0 0 0 N -
24.01.2020 18:00:00 7,5 5,8 0 0 8 5 N 0,0
24.01.2020 17:00:00 8,0 6,1 1 1 11 6 E 0,0
24.01.2020 16:00:00 9,0 5,0 4 2 12 6 NE 0,0
24.01.2020 15:00:00 10,6 2,9 4 2 11 6 WSW 0,0
24.01.2020 14:00:00 10,3 3,4 6 3 11 6 W 0,0
24.01.2020 13:00:00 10,4 3,4 1 0 7 4 E -
24.01.2020 12:00:00 8,4 3,4 0 0 10 5 W 0,0
24.01.2020 11:00:00 6,5 3,6 2 1 6 4 ESE 0,0
24.01.2020 10:00:00 2,9 2,5 2 1 9 5 W 0,0
24.01.2020 09:00:00 0,9 0,4 0 0 4 2 S 0,0
24.01.2020 08:00:00 0,8 0,2 1 1 5 3 SSE 0,0
24.01.2020 07:00:00 1,2 0,6 1 1 6 3 WSW -
24.01.2020 06:00:00 2,3 1,7 2 1 6 3 WSW 0,0
24.01.2020 05:00:00 3,5 2,9 0 0 5 3 N 0,0
24.01.2020 04:00:00 3,0 2,5 1 0 6 3 E 0,0
24.01.2020 03:00:00 3,3 2,7 0 0 0 0 N 0,0
24.01.2020 02:00:00 3,5 2,9 2 1 4 2 ENE 0,0
24.01.2020 01:00:00 4,2 3,2 0 0 5 3 N -
24.01.2020 00:00:00 4,9 3,4 3 1 8 5 NNW 0,0
23.01.2020 23:00:00 5,0 3,4 0 0 9 5 NE 0,0
23.01.2020 22:00:00 5,3 3,8 1 1 5 3 W 0,0
23.01.2020 21:00:00 5,7 4,1 3 2 9 5 W 0,0
23.01.2020 20:00:00 7,0 5,1 4 2 13 7 ENE 0,0
23.01.2020 19:00:00 7,7 5,5 6 4 13 7 ENE -
23.01.2020 18:00:00 8,0 5,3 3 2 14 7 NE 0,0
23.01.2020 17:00:00 8,7 4,6 9 5 16 9 ENE 0,0
23.01.2020 16:00:00 9,3 5,0 8 5 17 9 NE 0,0
23.01.2020 15:00:00 9,3 4,5 9 5 16 9 ENE 0,0
23.01.2020 14:00:00 9,7 3,6 4 2 13 7 E 0,0
23.01.2020 13:00:00 9,3 3,2 2 1 9 5 ESE -
23.01.2020 12:00:00 8,1 3,8 3 1 7 4 SSW 0,0
23.01.2020 11:00:00 - - - - - - - -
23.01.2020 10:00:00 3,7 3,2 0 0 7 4 N 0,0
23.01.2020 09:00:00 2,6 2,1 1 1 7 4 SSW 0,0
23.01.2020 08:00:00 2,7 2,3 0 0 9 5 N 0,0
23.01.2020 07:00:00 3,2 2,9 3 2 12 6 SSW -
23.01.2020 06:00:00 3,1 2,7 4 2 10 5 SSE 0,0
23.01.2020 05:00:00 3,1 2,5 4 2 8 4 S 0,0
23.01.2020 04:00:00 3,4 2,9 0 0 7 4 SSW 0,0
23.01.2020 03:00:00 3,5 2,9 1 1 4 2 WSW 0,2
23.01.2020 02:00:00 3,5 2,9 0 0 5 3 N 0,2
23.01.2020 01:00:00 3,6 3,0 2 1 6 3 SW -
23.01.2020 00:00:00 3,5 2,9 0 0 10 5 SSE 1,6
22.01.2020 23:00:00 3,7 3,0 5 3 11 6 SSW 0,7
22.01.2020 22:00:00 4,0 3,0 1 0 9 5 ESE 0,6
22.01.2020 21:00:00 3,8 2,9 4 2 10 5 S 0,2
22.01.2020 20:00:00 4,0 3,0 2 1 8 4 S 0,1
22.01.2020 19:00:00 4,0 3,0 0 0 10 5 SSW -
22.01.2020 18:00:00 4,2 3,2 5 3 13 7 S 0,0
22.01.2020 17:00:00 4,6 3,6 4 2 11 6 S 0,1
22.01.2020 16:00:00 5,0 3,9 4 2 10 6 S 0,0
22.01.2020 15:00:00 4,6 4,1 5 3 11 6 SSW 0,0
22.01.2020 14:00:00 4,2 3,8 5 3 10 5 S 0,0
22.01.2020 13:00:00 3,7 3,2 5 3 10 5 S -
22.01.2020 12:00:00 3,8 3,4 3 2 7 4 SSW 0,0
22.01.2020 11:00:00 3,4 3,0 3 2 10 5 SW 0,0
22.01.2020 10:00:00 2,8 2,3 4 2 10 6 S 0,0
22.01.2020 09:00:00 2,7 2,3 0 0 7 4 W 0,0
22.01.2020 08:00:00 2,5 2,1 4 2 12 6 S 0,0
22.01.2020 07:00:00 - - - - - - - -
22.01.2020 06:00:00 - - - - - - - -
22.01.2020 05:00:00 - - - - - - - -
22.01.2020 04:00:00 - - - - - - - -
22.01.2020 03:00:00 - - - - - - - -
22.01.2020 02:00:00 - - - - - - - -
22.01.2020 01:00:00 - - - - - - - -
22.01.2020 00:00:00 - - - - - - - -
21.01.2020 23:00:00 - - - - - - - -
21.01.2020 22:00:00 - - - - - - - -
21.01.2020 21:00:00 - - - - - - - -
21.01.2020 20:00:00 - - - - - - - -
21.01.2020 19:00:00 - - - - - - - -
21.01.2020 18:00:00 - - - - - - - -
21.01.2020 17:00:00 - - - - - - - -
21.01.2020 16:00:00 - - - - - - - -
21.01.2020 15:00:00 - - - - - - - -
21.01.2020 14:00:00 - - - - - - - -
21.01.2020 13:00:00 2,3 2,1 3 2 21 11 WSW -
21.01.2020 12:00:00 1,7 1,5 12 7 22 12 W 3,0
21.01.2020 11:00:00 0,9 0,4 7 4 18 10 SW 4,7
21.01.2020 10:00:00 0,7 0,2 5 3 22 12 NW 4,0
21.01.2020 09:00:00 0,3 0,0 14 7 29 15 WNW 5,0
21.01.2020 08:00:00 0,3 0,0 15 8 31 17 WNW 6,6
21.01.2020 07:00:00 0,1 -0,3 13 7 23 12 WNW -
21.01.2020 06:00:00 0,7 0,2 11 6 19 10 WNW 6,8
21.01.2020 05:00:00 0,3 0,0 6 4 14 8 W 4,2
21.01.2020 04:00:00 0,2 -0,3 5 3 16 9 WNW 2,2
21.01.2020 03:00:00 0,0 -0,5 6 4 16 8 WNW 3,9
21.01.2020 02:00:00 0,0 -0,5 8 4 19 11 W 1,0
21.01.2020 01:00:00 0,0 -0,5 10 5 24 13 WNW -
21.01.2020 00:00:00 0,8 0,2 8 4 18 10 NW 2,6
20.01.2020 23:00:00 2,9 2,1 8 4 17 9 NNW 1,7
20.01.2020 22:00:00 0,8 0,4 0 0 7 4 S 1,2
20.01.2020 21:00:00 0,7 0,2 0 0 7 4 ENE 1,3
20.01.2020 20:00:00 0,9 0,0 6 3 17 9 W 0,3
20.01.2020 19:00:00 0,7 -0,3 10 5 24 13 WNW -
20.01.2020 18:00:00 0,7 0,0 6 4 26 14 WNW 0,1
20.01.2020 17:00:00 0,3 -0,5 8 5 21 11 WNW 0,3
20.01.2020 16:00:00 0,3 -0,5 9 5 18 10 W 0,4
20.01.2020 15:00:00 0,2 -0,5 8 4 17 9 WNW 0,4
20.01.2020 14:00:00 0,2 -0,5 8 5 21 11 WNW 0,6
20.01.2020 13:00:00 0,0 -0,7 8 4 18 10 WNW -
20.01.2020 12:00:00 -0,1 -0,7 9 5 18 10 WNW 1,1
20.01.2020 11:00:00 -0,3 -1,0 3 2 16 8 W 1,0
20.01.2020 10:00:00 -0,4 -1,2 7 4 22 12 WNW 0,3
20.01.2020 09:00:00 -0,5 -1,4 8 4 17 9 WNW 0,5
20.01.2020 08:00:00 0,0 -2,2 4 2 18 10 W 0,4
20.01.2020 07:00:00 1,2 -4,2 3 1 18 10 NNW -
20.01.2020 06:00:00 1,1 -4,5 9 5 21 12 W 0,0
20.01.2020 05:00:00 1,2 -4,5 11 6 24 13 WNW 0,0
20.01.2020 04:00:00 1,1 -4,5 13 7 31 17 WNW 0,0
20.01.2020 03:00:00 1,4 -4,2 11 6 26 14 WNW 0,0
20.01.2020 02:00:00 1,2 -4,2 12 7 26 14 WNW 0,0
20.01.2020 01:00:00 1,2 -4,2 11 6 21 11 WNW -

tt = Température de l'air
td = dewpoint
ff = Vitesse du vent
fx = gusts
dd = Direction du vent
rr = Quantités de précipitations

stations d'obs. à proximité